Time,TemperatureF,DewpointF,PressureIn,WindDirection,WindDirectionDegrees,WindSpeedMPH,WindSpeedGustMPH,Humidity,HourlyPrecipIn,Conditions,Clouds,dailyrainin,SolarRadiationWatts/m^2,SoftwareType,DateUTC
2013-06-23 00:01:00,68.0,66.0,-100.00,SSE,153,0.0,0.0,94,0.00,,,0.00,0.000000,,2013-06-23 04:01:00,
2013-06-23 00:31:00,67.0,66.0,-100.00,SSE,162,0.0,0.0,95,0.00,,,0.00,0.000000,,2013-06-23 04:31:00,
2013-06-23 00:42:00,67.0,66.0,-100.00,SSE,162,0.0,0.0,95,0.00,,,0.00,0.000000,,2013-06-23 04:42:00,
2013-06-23 00:52:00,67.0,66.0,-100.00,SSE,162,0.0,0.0,95,0.00,,,0.00,0.000000,,2013-06-23 04:52:00,
2013-06-23 01:01:00,67.0,66.0,-100.00,SSE,162,0.0,0.0,95,0.00,,,0.00,0.000000,,2013-06-23 05:01:00,
2013-06-23 01:32:00,66.0,65.0,-100.00,SSE,147,0.0,0.0,96,0.00,,,0.00,0.000000,,2013-06-23 05:32:00,
2013-06-23 01:42:00,66.0,65.0,-100.00,SSE,147,0.0,0.0,96,0.00,,,0.00,0.000000,,2013-06-23 05:42:00,
2013-06-23 01:52:00,66.0,65.0,-100.00,SSE,147,0.0,0.0,96,0.00,,,0.00,0.000000,,2013-06-23 05:52:00,
2013-06-23 02:02:00,66.0,65.0,-100.00,SSE,147,0.0,0.0,96,0.00,,,0.00,0.000000,,2013-06-23 06:02:00,
2013-06-23 02:33:00,66.0,65.0,-100.00,NW,313,0.0,0.0,96,0.00,,,0.00,0.000000,,2013-06-23 06:33:00,
2013-06-23 02:43:00,66.0,65.0,-100.00,NW,313,0.0,0.0,96,0.00,,,0.00,0.000000,,2013-06-23 06:43:00,
2013-06-23 02:52:00,66.0,65.0,-100.00,NW,313,0.0,0.0,96,0.00,,,0.00,0.000000,,2013-06-23 06:52:00,
2013-06-23 03:02:00,66.0,65.0,-100.00,NW,313,0.0,0.0,96,0.00,,,0.00,0.000000,,2013-06-23 07:02:00,
2013-06-23 03:34:00,65.0,64.0,-100.00,SSW,192,0.0,0.0,96,0.00,,,0.00,0.000000,,2013-06-23 07:34:00,
2013-06-23 03:43:00,65.0,64.0,-100.00,SSW,192,0.0,0.0,96,0.00,,,0.00,0.000000,,2013-06-23 07:43:00,
2013-06-23 03:53:00,65.0,64.0,-100.00,SSW,192,0.0,0.0,96,0.00,,,0.00,0.000000,,2013-06-23 07:53:00,
2013-06-23 04:02:00,65.0,64.0,-100.00,SSW,192,0.0,0.0,96,0.00,,,0.00,0.000000,,2013-06-23 08:02:00,
2013-06-23 04:34:00,65.0,64.0,-100.00,West,281,0.0,0.0,97,0.00,,,0.00,0.000000,,2013-06-23 08:34:00,
2013-06-23 04:43:00,65.0,64.0,-100.00,West,281,0.0,0.0,97,0.00,,,0.00,0.000000,,2013-06-23 08:43:00,
2013-06-23 04:53:00,65.0,64.0,-100.00,West,281,0.0,0.0,97,0.00,,,0.00,0.000000,,2013-06-23 08:53:00,
2013-06-23 05:02:00,65.0,64.0,-100.00,West,281,0.0,0.0,97,0.00,,,0.00,0.000000,,2013-06-23 09:02:00,
2013-06-23 05:34:00,64.0,63.0,-100.00,SSE,163,0.0,0.0,97,0.00,,,0.00,0.000000,,2013-06-23 09:34:00,
2013-06-23 05:43:00,64.0,63.0,-100.00,SSE,163,0.0,0.0,97,0.00,,,0.00,0.000000,,2013-06-23 09:43:00,
2013-06-23 05:54:00,64.0,63.0,-100.00,SSE,163,0.0,0.0,97,0.00,,,0.00,0.000000,,2013-06-23 09:54:00,
2013-06-23 06:02:00,64.0,63.0,-100.00,SSE,163,0.0,0.0,97,0.00,,,0.00,0.000000,,2013-06-23 10:02:00,
2013-06-23 06:34:00,63.0,62.0,-100.00,SSE,165,0.0,0.0,97,0.00,,,0.00,0.000000,,2013-06-23 10:34:00,
2013-06-23 06:43:00,63.0,62.0,-100.00,SSE,165,0.0,0.0,97,0.00,,,0.00,0.000000,,2013-06-23 10:43:00,
2013-06-23 06:53:00,63.0,62.0,-100.00,SSE,165,0.0,0.0,97,0.00,,,0.00,0.000000,,2013-06-23 10:53:00,
2013-06-23 07:02:00,63.0,62.0,-100.00,SSE,165,0.0,0.0,97,0.00,,,0.00,0.000000,,2013-06-23 11:02:00,
2013-06-23 07:33:00,63.0,62.0,-100.00,WSW,250,0.0,0.0,97,0.00,,,0.00,8.000000,,2013-06-23 11:33:00,
2013-06-23 07:43:00,63.0,62.0,-100.00,WSW,250,0.0,0.0,97,0.00,,,0.00,8.000000,,2013-06-23 11:43:00,
2013-06-23 07:53:00,63.0,62.0,-100.00,WSW,250,0.0,0.0,97,0.00,,,0.00,8.000000,,2013-06-23 11:53:00,
2013-06-23 08:01:00,63.0,62.0,-100.00,WSW,250,0.0,0.0,97,0.00,,,0.00,8.000000,,2013-06-23 12:01:00,
2013-06-23 08:34:00,67.0,66.0,-100.00,NNW,340,0.0,0.0,95,0.00,,,0.00,102.000000,,2013-06-23 12:34:00,
2013-06-23 08:43:00,67.0,66.0,-100.00,NNW,340,0.0,0.0,95,0.00,,,0.00,102.000000,,2013-06-23 12:43:00,
2013-06-23 08:53:00,67.0,66.0,-100.00,NNW,340,0.0,0.0,95,0.00,,,0.00,102.000000,,2013-06-23 12:53:00,
2013-06-23 09:02:00,67.0,66.0,-100.00,NNW,340,0.0,0.0,95,0.00,,,0.00,102.000000,,2013-06-23 13:02:00,
2013-06-23 09:34:00,75.0,69.0,-100.00,WSW,249,0.0,0.0,83,0.00,,,0.00,260.000000,,2013-06-23 13:34:00,
2013-06-23 09:43:00,75.0,69.0,-100.00,WSW,249,0.0,0.0,83,0.00,,,0.00,260.000000,,2013-06-23 13:43:00,
2013-06-23 09:54:00,75.0,69.0,-100.00,WSW,249,0.0,0.0,83,0.00,,,0.00,260.000000,,2013-06-23 13:54:00,
2013-06-23 10:05:00,75.0,69.0,-100.00,WSW,249,0.0,0.0,83,0.00,,,0.00,260.000000,,2013-06-23 14:05:00,
2013-06-23 10:34:00,79.0,67.0,-100.00,SSW,197,0.0,0.0,66,0.00,,,0.00,433.000000,,2013-06-23 14:34:00,
2013-06-23 10:44:00,79.0,67.0,-100.00,SSW,197,0.0,0.0,66,0.00,,,0.00,433.000000,,2013-06-23 14:44:00,
2013-06-23 10:52:00,79.0,67.0,-100.00,SSW,197,0.0,0.0,66,0.00,,,0.00,433.000000,,2013-06-23 14:52:00,
2013-06-23 11:05:00,79.0,67.0,-100.00,SSW,197,0.0,0.0,66,0.00,,,0.00,433.000000,,2013-06-23 15:05:00,
2013-06-23 11:06:00,82.0,68.0,-100.00,South,173,2.0,6.0,63,0.00,,,0.00,604.000000,,2013-06-23 15:06:00,
2013-06-23 11:35:00,82.0,68.0,-100.00,South,173,2.0,6.0,63,0.00,,,0.00,604.000000,,2013-06-23 15:35:00,
2013-06-23 11:43:00,82.0,68.0,-100.00,South,173,2.0,6.0,63,0.00,,,0.00,604.000000,,2013-06-23 15:43:00,
2013-06-23 11:53:00,82.0,68.0,-100.00,South,173,2.0,6.0,63,0.00,,,0.00,604.000000,,2013-06-23 15:53:00,
2013-06-23 12:06:00,83.0,68.0,-100.00,SSE,164,0.0,5.0,60,0.00,,,0.00,522.000000,,2013-06-23 16:06:00,
2013-06-23 12:36:00,83.0,68.0,-100.00,SSE,164,0.0,5.0,60,0.00,,,0.00,522.000000,,2013-06-23 16:36:00,
2013-06-23 12:43:00,83.0,68.0,-100.00,SSE,164,0.0,5.0,60,0.00,,,0.00,522.000000,,2013-06-23 16:43:00,
2013-06-23 12:53:00,83.0,68.0,-100.00,SSE,164,0.0,5.0,60,0.00,,,0.00,522.000000,,2013-06-23 16:53:00,
2013-06-23 13:34:00,84.0,68.0,-100.00,SSW,196,1.0,10.0,58,0.00,,,0.00,719.000000,,2013-06-23 17:34:00,
2013-06-23 13:43:00,84.0,68.0,-100.00,SSW,196,1.0,10.0,58,0.00,,,0.00,719.000000,,2013-06-23 17:43:00,
2013-06-23 13:53:00,84.0,68.0,-100.00,SSW,196,1.0,10.0,58,0.00,,,0.00,719.000000,,2013-06-23 17:53:00,
2013-06-23 14:01:00,84.0,68.0,-100.00,SSW,196,1.0,10.0,58,0.00,,,0.00,719.000000,,2013-06-23 18:01:00,
2013-06-23 14:34:00,87.0,68.0,-100.00,SE,128,0.0,11.0,53,0.00,,,0.00,823.000000,,2013-06-23 18:34:00,
2013-06-23 14:43:00,87.0,68.0,-100.00,SE,128,0.0,11.0,53,0.00,,,0.00,823.000000,,2013-06-23 18:43:00,
2013-06-23 14:53:00,87.0,68.0,-100.00,SE,128,0.0,11.0,53,0.00,,,0.00,823.000000,,2013-06-23 18:53:00,
2013-06-23 15:01:00,87.0,68.0,-100.00,SE,128,0.0,11.0,53,0.00,,,0.00,823.000000,,2013-06-23 19:01:00,
2013-06-23 15:32:00,85.0,67.0,-100.00,SSW,212,2.0,12.0,55,0.00,,,0.00,567.000000,,2013-06-23 19:32:00,
2013-06-23 15:43:00,85.0,67.0,-100.00,SSW,212,2.0,12.0,55,0.00,,,0.00,567.000000,,2013-06-23 19:43:00,
2013-06-23 15:53:00,85.0,67.0,-100.00,SSW,212,2.0,12.0,55,0.00,,,0.00,567.000000,,2013-06-23 19:53:00,
2013-06-23 16:02:00,85.0,67.0,-100.00,SSW,212,2.0,12.0,55,0.00,,,0.00,567.000000,,2013-06-23 20:02:00,
2013-06-23 16:34:00,87.0,67.0,-100.00,SSW,207,0.0,8.0,52,0.00,,,0.00,579.000000,,2013-06-23 20:34:00,
2013-06-23 16:42:00,87.0,67.0,-100.00,SSW,207,0.0,8.0,52,0.00,,,0.00,579.000000,,2013-06-23 20:42:00,
2013-06-23 16:53:00,87.0,67.0,-100.00,SSW,207,0.0,8.0,52,0.00,,,0.00,579.000000,,2013-06-23 20:53:00,
2013-06-23 17:01:00,87.0,67.0,-100.00,SSW,207,0.0,8.0,52,0.00,,,0.00,579.000000,,2013-06-23 21:01:00,
2013-06-23 17:34:00,86.0,67.0,-100.00,South,175,0.0,8.0,54,0.00,,,0.00,475.000000,,2013-06-23 21:34:00,
2013-06-23 17:44:00,86.0,67.0,-100.00,South,175,0.0,8.0,54,0.00,,,0.00,475.000000,,2013-06-23 21:44:00,
2013-06-23 17:52:00,86.0,67.0,-100.00,South,175,0.0,8.0,54,0.00,,,0.00,475.000000,,2013-06-23 21:52:00,
2013-06-23 18:01:00,86.0,67.0,-100.00,South,175,0.0,8.0,54,0.00,,,0.00,475.000000,,2013-06-23 22:01:00,
2013-06-23 18:33:00,83.0,67.0,-100.00,SE,129,1.0,14.0,58,0.00,,,0.00,520.000000,,2013-06-23 22:33:00,
2013-06-23 18:43:00,83.0,67.0,-100.00,SE,129,1.0,14.0,58,0.00,,,0.00,520.000000,,2013-06-23 22:43:00,
2013-06-23 18:53:00,83.0,67.0,-100.00,SE,129,1.0,14.0,58,0.00,,,0.00,520.000000,,2013-06-23 22:53:00,
2013-06-23 19:01:00,83.0,67.0,-100.00,SE,129,1.0,14.0,58,0.00,,,0.00,520.000000,,2013-06-23 23:01:00,
2013-06-23 19:33:00,84.0,69.0,-100.00,ESE,114,0.0,8.0,60,0.00,,,0.00,297.000000,,2013-06-23 23:33:00,
2013-06-23 19:44:00,84.0,69.0,-100.00,ESE,114,0.0,8.0,60,0.00,,,0.00,297.000000,,2013-06-23 23:44:00,
2013-06-23 19:52:00,84.0,69.0,-100.00,ESE,114,0.0,8.0,60,0.00,,,0.00,297.000000,,2013-06-23 23:52:00,
2013-06-23 20:01:00,84.0,69.0,-100.00,ESE,114,0.0,8.0,60,0.00,,,0.00,297.000000,,2013-06-24 00:01:00,
2013-06-23 20:33:00,80.0,69.0,-100.00,SSE,165,0.0,7.0,69,0.00,,,0.00,95.000000,,2013-06-24 00:33:00,
2013-06-23 20:43:00,80.0,69.0,-100.00,SSE,165,0.0,7.0,69,0.00,,,0.00,95.000000,,2013-06-24 00:43:00,
2013-06-23 20:52:00,80.0,69.0,-100.00,SSE,165,0.0,7.0,69,0.00,,,0.00,95.000000,,2013-06-24 00:52:00,
2013-06-23 21:02:00,80.0,69.0,-100.00,SSE,165,0.0,7.0,69,0.00,,,0.00,95.000000,,2013-06-24 01:02:00,
2013-06-23 21:32:00,77.0,69.0,-100.00,NE,42,0.0,0.0,77,0.00,,,0.00,13.000000,,2013-06-24 01:32:00,
2013-06-23 21:42:00,77.0,69.0,-100.00,NE,42,0.0,0.0,77,0.00,,,0.00,13.000000,,2013-06-24 01:42:00,
2013-06-23 21:53:00,77.0,69.0,-100.00,NE,42,0.0,0.0,77,0.00,,,0.00,13.000000,,2013-06-24 01:53:00,
2013-06-23 22:02:00,77.0,69.0,-100.00,NE,42,0.0,0.0,77,0.00,,,0.00,13.000000,,2013-06-24 02:02:00,
2013-06-23 22:33:00,72.0,69.0,-100.00,East,86,0.0,1.0,91,0.00,,,0.00,0.000000,,2013-06-24 02:33:00,
2013-06-23 22:42:00,72.0,69.0,-100.00,East,86,0.0,1.0,91,0.00,,,0.00,0.000000,,2013-06-24 02:42:00,
2013-06-23 22:53:00,72.0,69.0,-100.00,East,86,0.0,1.0,91,0.00,,,0.00,0.000000,,2013-06-24 02:53:00,
2013-06-23 23:01:00,72.0,69.0,-100.00,East,86,0.0,1.0,91,0.00,,,0.00,0.000000,,2013-06-24 03:01:00,
2013-06-23 23:33:00,71.0,68.0,-100.00,East,95,0.0,0.0,91,0.00,,,0.00,0.000000,,2013-06-24 03:33:00,
2013-06-23 23:43:00,71.0,68.0,-100.00,East,95,0.0,0.0,91,0.00,,,0.00,0.000000,,2013-06-24 03:43:00,
2013-06-23 23:53:00,71.0,68.0,-100.00,East,95,0.0,0.0,91,0.00,,,0.00,0.000000,,2013-06-24 03:53:00,